Time;durP1;ratioP1;P1;durP2;ratioP2;P2;SDS_P1;SDS_P2;PMS_P1;PMS_P2;Temp;Humidity;BMP_temperature;BMP_pressure;BME280_temperature;BME280_humidity;BME280_pressure;Samples;Min_cycle;Max_cycle;Signal;HPM_P1;HPM_P2
2021/05/07 00:01:04;;;;;;;5.03;2.90;;;;;;;17.47;52.41;99659.34;5059846;28;20040;-68
2021/05/07 00:03:30;;;;;;;3.13;2.53;;;;;;;17.45;52.40;99663.28;5059974;28;20024;-74
2021/05/07 00:05:56;;;;;;;6.30;3.05;;;;;;;17.31;53.15;99659.78;5060408;28;20043;-68
2021/05/07 00:08:24;;;;;;;5.82;3.00;;;;;;;17.36;53.04;99659.16;5060948;28;20025;-74
2021/05/07 00:10:50;;;;;;;3.88;2.78;;;;;;;17.34;53.07;99663.91;5058221;28;20107;-69
2021/05/07 00:13:15;;;;;;;9.65;2.97;;;;;;;17.32;53.46;99668.66;5062095;28;20239;-74
2021/05/07 00:15:41;;;;;;;6.20;3.03;;;;;;;17.41;52.87;99657.50;5062093;28;20215;-69
2021/05/07 00:18:06;;;;;;;6.45;3.38;;;;;;;17.27;53.37;99653.22;5059589;28;20035;-74
2021/05/07 00:20:32;;;;;;;5.93;2.78;;;;;;;17.18;53.27;99657.13;5059679;28;20033;-74
2021/05/07 00:22:57;;;;;;;8.55;3.50;;;;;;;16.89;54.35;99655.69;5060061;28;20192;-73
2021/05/07 00:25:23;;;;;;;4.15;3.45;;;;;;;16.80;54.72;99646.22;5060912;28;20036;-68
2021/05/07 00:27:56;;;;;;;4.03;3.08;;;;;;;16.81;54.75;99647.88;5059338;28;20067;-73
2021/05/07 00:30:21;;;;;;;7.85;3.20;;;;;;;16.76;54.83;99663.69;5059053;28;20327;-68
2021/05/07 00:32:47;;;;;;;9.13;3.83;;;;;;;16.63;55.04;99648.41;5061442;28;20081;-68
2021/05/07 00:35:12;;;;;;;8.00;3.10;;;;;;;16.54;55.59;99647.78;5061375;28;20048;-74
2021/05/07 00:37:38;;;;;;;5.10;3.38;;;;;;;16.55;55.68;99641.41;5061948;28;20032;-74
2021/05/07 00:40:04;;;;;;;8.95;3.42;;;;;;;16.70;54.94;99646.63;5058998;28;20104;-74
2021/05/07 00:42:29;;;;;;;5.18;3.28;;;;;;;16.84;54.43;99644.78;5060267;28;20155;-69
2021/05/07 00:44:54;;;;;;;9.90;3.40;;;;;;;16.88;54.74;99646.03;5059284;28;20070;-68
2021/05/07 00:47:20;;;;;;;5.28;3.20;;;;;;;16.94;54.12;99645.19;5060521;28;20079;-69
2021/05/07 00:49:45;;;;;;;8.18;3.75;;;;;;;17.03;53.95;99648.50;5059065;28;20304;-68
2021/05/07 00:52:11;;;;;;;8.38;3.47;;;;;;;16.86;53.85;99632.84;5058944;28;20043;-74
2021/05/07 00:54:36;;;;;;;7.30;3.00;;;;;;;16.86;54.13;99648.06;5059903;28;20028;-68
2021/05/07 00:57:03;;;;;;;7.35;3.40;;;;;;;16.78;54.21;99648.28;5057756;28;20056;-74
2021/05/07 00:59:28;;;;;;;4.68;3.40;;;;;;;16.65;54.96;99656.25;5057896;28;20020;-68
2021/05/07 01:01:54;;;;;;;7.45;3.20;;;;;;;16.48;55.45;99647.75;5059806;28;20075;-74
2021/05/07 01:04:20;;;;;;;6.60;3.63;;;;;;;16.05;56.42;99652.56;5057887;28;20044;-74
2021/05/07 01:06:45;;;;;;;7.25;3.80;;;;;;;16.09;56.46;99640.47;5059020;28;20041;-74
2021/05/07 01:09:11;;;;;;;8.98;4.75;;;;;;;16.08;56.63;99644.97;5058740;28;20064;-68
2021/05/07 01:11:38;;;;;;;12.55;3.55;;;;;;;15.73;57.72;99646.06;5061083;28;20025;-74
2021/05/07 01:14:05;;;;;;;6.07;3.45;;;;;;;15.56;57.82;99645.47;5060980;28;20353;-74
2021/05/07 01:16:32;;;;;;;6.80;3.33;;;;;;;15.77;57.37;99645.47;5059924;28;20024;-74
2021/05/07 01:19:01;;;;;;;6.50;3.10;;;;;;;15.90;57.13;99650.84;5057968;28;20071;-73
2021/05/07 01:21:27;;;;;;;9.50;3.25;;;;;;;15.78;57.61;99648.94;5058405;28;20046;-68
2021/05/07 01:23:53;;;;;;;5.38;3.53;;;;;;;15.77;57.83;99645.47;5059196;28;20037;-68
2021/05/07 01:26:19;;;;;;;5.78;3.55;;;;;;;15.83;57.42;99655.34;5058894;28;20025;-73
2021/05/07 01:28:45;;;;;;;5.53;3.08;;;;;;;15.90;57.29;99661.53;5062375;28;20080;-68
2021/05/07 01:31:11;;;;;;;10.43;3.40;;;;;;;15.83;57.75;99659.84;5061611;28;20041;-74
2021/05/07 01:33:37;;;;;;;5.90;4.03;;;;;;;15.87;57.18;99661.13;5062156;28;20302;-68
2021/05/07 01:36:03;;;;;;;8.80;3.38;;;;;;;15.94;56.97;99656.63;5056640;28;20029;-69
2021/05/07 01:38:29;;;;;;;8.43;3.67;;;;;;;15.97;56.87;99658.91;5065486;28;20021;-68
2021/05/07 01:40:54;;;;;;;4.35;2.97;;;;;;;16.04;56.72;99662.41;5061269;28;20036;-68
2021/05/07 01:43:22;;;;;;;6.03;3.08;;;;;;;16.20;56.27;99661.25;5058171;28;20181;-69
2021/05/07 01:45:48;;;;;;;9.27;3.33;;;;;;;16.20;56.10;99670.09;5055617;28;20104;-68
2021/05/07 01:48:14;;;;;;;6.65;3.08;;;;;;;16.18;56.41;99665.97;5060182;28;20029;-74
2021/05/07 01:50:43;;;;;;;8.35;3.80;;;;;;;16.10;56.21;99652.78;5058050;28;20052;-68
2021/05/07 01:53:08;;;;;;;5.60;3.50;;;;;;;16.10;56.53;99658.94;5059905;28;20302;-68
2021/05/07 01:55:40;;;;;;;4.10;2.65;;;;;;;15.87;56.51;99621.88;5058634;28;20079;-68
2021/05/07 01:58:07;;;;;;;5.55;3.17;;;;;;;16.03;56.42;99658.09;5059463;28;20306;-68
2021/05/07 02:00:34;;;;;;;8.13;3.35;;;;;;;16.03;56.64;99662.63;5059445;28;20238;-74
2021/05/07 02:03:03;;;;;;;5.40;3.63;;;;;;;16.08;56.71;99665.50;5060449;28;20338;-69
2021/05/07 02:05:32;;;;;;;4.32;3.15;;;;;;;16.02;56.50;99661.78;5058029;28;20340;-74
2021/05/07 02:07:57;;;;;;;5.57;3.40;;;;;;;16.01;56.89;99676.16;5055448;28;20071;-74
2021/05/07 02:10:25;;;;;;;6.03;3.17;;;;;;;15.89;56.98;99678.59;5061780;28;20250;-74
2021/05/07 02:12:52;;;;;;;8.13;3.55;;;;;;;15.85;57.56;99674.66;5062792;28;20087;-68
2021/05/07 02:15:19;;;;;;;8.98;3.55;;;;;;;15.87;57.32;99666.44;5062248;28;20146;-68
2021/05/07 02:17:44;;;;;;;8.32;4.00;;;;;;;15.89;57.09;99665.22;5062215;28;20123;-74
2021/05/07 02:20:15;;;;;;;6.80;4.07;;;;;;;15.81;57.35;99648.56;5062038;28;20277;-74
2021/05/07 02:22:41;;;;;;;5.05;3.00;;;;;;;15.86;57.22;99662.97;5064629;28;20033;-74
2021/05/07 02:25:08;;;;;;;5.45;4.00;;;;;;;15.81;57.29;99662.72;5063727;28;20028;-74
2021/05/07 02:27:33;;;;;;;7.03;4.20;;;;;;;15.86;57.45;99667.47;5066099;28;20039;-74
2021/05/07 02:29:59;;;;;;;8.07;3.90;;;;;;;15.79;57.71;99666.63;5063497;28;20056;-74
2021/05/07 02:32:25;;;;;;;9.75;4.18;;;;;;;15.83;57.33;99667.88;5062513;28;20035;-74
2021/05/07 02:34:50;;;;;;;8.48;4.28;;;;;;;15.76;57.68;99661.69;5063054;28;20072;-74
2021/05/07 02:37:16;;;;;;;7.63;3.80;;;;;;;15.84;57.43;99667.69;5061889;28;20256;-68
2021/05/07 02:39:41;;;;;;;5.00;3.53;;;;;;;15.93;56.84;99668.34;5062524;28;20246;-68
2021/05/07 02:42:07;;;;;;;13.43;3.80;;;;;;;15.69;57.59;99680.31;5061961;28;20131;-68
2021/05/07 02:44:32;;;;;;;8.32;3.30;;;;;;;15.56;58.09;99681.00;5064110;28;20123;-74
2021/05/07 02:47:04;;;;;;;5.47;3.42;;;;;;;15.58;57.76;99671.00;5063826;28;20080;-74
2021/05/07 02:49:33;;;;;;;5.38;3.08;;;;;;;15.45;57.99;99678.06;5060790;28;20056;-68
2021/05/07 02:52:01;;;;;;;5.60;3.03;;;;;;;15.33;58.36;99680.44;5061735;28;20246;-74
2021/05/07 02:54:27;;;;;;;7.25;3.05;;;;;;;15.17;58.76;99680.72;5061117;28;20063;-68
2021/05/07 02:56:52;;;;;;;7.25;2.95;;;;;;;15.13;58.91;99682.94;5062614;28;20238;-74
2021/05/07 02:59:18;;;;;;;5.65;3.00;;;;;;;14.88;59.54;99674.53;5061241;28;20043;-74
2021/05/07 03:01:43;;;;;;;8.15;3.70;;;;;;;14.96;59.14;99682.41;5060600;28;20108;-74
2021/05/07 03:04:09;;;;;;;9.75;3.22;;;;;;;14.83;59.59;99686.78;5062201;28;20064;-68
2021/05/07 03:06:34;;;;;;;5.95;3.20;;;;;;;14.70;60.19;99684.81;5060843;28;20032;-68
2021/05/07 03:09:01;;;;;;;5.55;3.63;;;;;;;14.51;60.75;99674.75;5060099;28;20033;-74
2021/05/07 03:11:26;;;;;;;8.07;3.28;;;;;;;14.62;60.58;99692.94;5060342;28;20053;-68
2021/05/07 03:13:53;;;;;;;5.38;3.50;;;;;;;14.63;60.40;99679.44;5061161;28;20100;-74
2021/05/07 03:16:21;;;;;;;7.35;3.50;;;;;;;14.79;59.74;99682.84;5061719;28;20032;-73
2021/05/07 03:18:47;;;;;;;5.57;3.10;;;;;;;14.92;59.49;99689.13;5059785;28;20114;-68
2021/05/07 03:21:12;;;;;;;5.65;3.63;;;;;;;15.02;58.79;99697.63;5060468;28;20425;-74
2021/05/07 03:23:38;;;;;;;7.82;3.80;;;;;;;14.98;59.34;99696.38;5062230;28;20303;-74
2021/05/07 03:26:03;;;;;;;7.22;3.72;;;;;;;15.00;59.44;99693.50;5060058;28;20107;-68
2021/05/07 03:28:28;;;;;;;7.13;3.45;;;;;;;14.79;59.86;99678.34;5060814;28;20096;-73
2021/05/07 03:30:54;;;;;;;6.82;4.18;;;;;;;14.96;59.90;99694.91;5060896;28;20048;-68
2021/05/07 03:33:19;;;;;;;5.50;4.15;;;;;;;14.86;60.15;99691.75;5061915;28;20099;-74
2021/05/07 03:35:45;;;;;;;13.30;4.07;;;;;;;14.85;60.43;99695.41;5061591;28;20326;-74
2021/05/07 03:38:11;;;;;;;8.07;4.05;;;;;;;14.99;60.09;99700.69;5058177;28;20025;-74
2021/05/07 03:40:36;;;;;;;13.55;4.25;;;;;;;15.23;59.45;99702.13;5060218;28;20024;-74
2021/05/07 03:43:02;;;;;;;6.75;4.13;;;;;;;15.37;58.79;99695.03;5061336;28;20047;-74
2021/05/07 03:45:28;;;;;;;5.13;3.50;;;;;;;15.53;58.40;99704.59;5058532;28;20329;-68
2021/05/07 03:47:53;;;;;;;9.43;4.03;;;;;;;15.68;58.19;99700.03;5060998;28;20036;-74
2021/05/07 03:50:18;;;;;;;12.35;4.35;;;;;;;15.69;58.04;99693.66;5060596;28;20242;-69
2021/05/07 03:52:44;;;;;;;6.57;3.83;;;;;;;15.75;57.85;99692.88;5061345;28;20020;-75
2021/05/07 03:55:12;;;;;;;8.82;4.50;;;;;;;15.74;58.09;99693.91;5062584;28;20024;-74
2021/05/07 03:57:38;;;;;;;7.65;5.00;;;;;;;15.80;57.93;99692.28;5056548;28;20043;-74
2021/05/07 04:00:08;;;;;;;8.48;4.72;;;;;;;16.02;57.35;99701.84;5062241;28;20056;-74
2021/05/07 04:02:34;;;;;;;11.07;4.40;;;;;;;16.04;57.18;99702.47;5059753;28;20051;-74
2021/05/07 04:04:59;;;;;;;11.25;4.97;;;;;;;15.99;57.58;99714.78;5062288;28;20053;-74
2021/05/07 04:07:26;;;;;;;10.98;4.18;;;;;;;15.96;57.37;99697.31;5061871;28;20033;-74
2021/05/07 04:10:05;;;;;;;6.50;4.30;;;;;;;16.19;56.77;99697.00;5060989;28;20079;-74
2021/05/07 04:15:15;;;;;;;10.13;4.57;;;;;;;16.18;56.71;99719.41;5059245;28;20028;-74
2021/05/07 04:17:41;;;;;;;15.43;5.30;;;;;;;16.14;57.03;99726.16;5062111;28;20024;-68
2021/05/07 04:20:08;;;;;;;13.70;4.45;;;;;;;16.19;56.96;99729.88;5061937;28;20036;-68
2021/05/07 04:22:33;;;;;;;12.77;4.80;;;;;;;16.31;56.65;99737.34;5060663;28;20021;-74
2021/05/07 04:24:59;;;;;;;11.63;4.57;;;;;;;16.14;56.89;99718.97;5060856;28;20097;-68
2021/05/07 04:27:25;;;;;;;9.60;4.78;;;;;;;16.17;57.11;99737.28;5059379;28;20020;-68
2021/05/07 04:29:51;;;;;;;10.35;4.95;;;;;;;16.02;57.41;99735.75;5061554;28;20028;-68
2021/05/07 04:32:17;;;;;;;12.18;4.72;;;;;;;16.01;58.12;99721.56;5059279;28;20024;-68
2021/05/07 04:34:42;;;;;;;9.32;4.22;;;;;;;16.08;57.85;99735.78;5060195;28;20366;-74
2021/05/07 04:37:08;;;;;;;10.15;4.95;;;;;;;16.22;58.13;99734.81;5060155;28;20020;-69
2021/05/07 04:39:33;;;;;;;11.85;4.38;;;;;;;16.16;58.23;99735.63;5058741;28;20025;-75
2021/05/07 04:41:59;;;;;;;9.48;4.63;;;;;;;16.28;57.97;99727.88;5059630;28;20021;-68
2021/05/07 04:44:24;;;;;;;9.57;4.30;;;;;;;16.59;57.98;99740.72;5060067;28;20100;-68
2021/05/07 04:46:50;;;;;;;15.27;5.00;;;;;;;16.80;57.59;99739.81;5060188;28;20398;-73
2021/05/07 04:49:16;;;;;;;8.02;4.22;;;;;;;17.00;56.89;99753.22;5060492;28;20039;-68
2021/05/07 04:51:41;;;;;;;9.50;4.68;;;;;;;17.08;56.28;99750.34;5059656;28;20032;-74
2021/05/07 04:54:07;;;;;;;9.45;4.63;;;;;;;17.16;55.06;99748.31;5061287;28;20029;-68
2021/05/07 04:56:32;;;;;;;8.38;4.07;;;;;;;17.04;55.29;99749.94;5060652;28;20052;-74
2021/05/07 04:58:58;;;;;;;7.18;4.07;;;;;;;17.58;54.25;99748.91;5059198;28;20057;-68
2021/05/07 05:01:24;;;;;;;6.80;4.22;;;;;;;18.08;52.18;99738.59;5059331;28;20095;-74
2021/05/07 05:03:49;;;;;;;10.55;4.60;;;;;;;18.28;51.95;99752.75;5059326;28;20328;-69
2021/05/07 05:06:16;;;;;;;7.75;4.07;;;;;;;18.64;51.02;99744.16;5058953;28;20047;-74
2021/05/07 05:08:41;;;;;;;8.07;4.10;;;;;;;18.81;50.22;99741.84;5059221;28;20215;-68
2021/05/07 05:11:07;;;;;;;13.68;4.38;;;;;;;19.29;49.13;99749.34;5061515;28;20078;-74
2021/05/07 05:13:32;;;;;;;7.85;4.40;;;;;;;19.83;48.35;99751.41;5058746;28;20253;-69
2021/05/07 05:15:58;;;;;;;9.38;3.65;;;;;;;20.38;47.49;99754.09;5060489;28;20056;-74
2021/05/07 05:18:28;;;;;;;11.98;4.07;;;;;;;20.72;45.86;99721.19;5059328;28;20109;-74
2021/05/07 05:20:55;;;;;;;10.13;4.03;;;;;;;20.92;45.26;99750.53;5058055;28;20036;-74
2021/05/07 05:23:21;;;;;;;10.20;4.05;;;;;;;21.45;44.49;99749.75;5062008;28;20051;-75
2021/05/07 05:25:48;;;;;;;7.28;3.75;;;;;;;22.01;42.48;99742.97;5062073;28;20033;-68
2021/05/07 05:28:13;;;;;;;5.50;3.78;;;;;;;22.13;41.82;99754.59;5058493;28;20029;-74
2021/05/07 05:30:39;;;;;;;9.40;3.80;;;;;;;21.94;42.22;99743.09;5049547;28;20326;-69
2021/05/07 05:33:04;;;;;;;7.97;4.00;;;;;;;22.25;41.54;99747.31;5060707;28;20098;-74
2021/05/07 05:35:29;;;;;;;5.38;3.67;;;;;;;22.47;41.30;99746.66;5058166;28;20046;-75
2021/05/07 05:37:55;;;;;;;7.95;3.50;;;;;;;22.67;40.99;99748.94;5057049;28;20271;-69
2021/05/07 05:40:20;;;;;;;6.63;3.60;;;;;;;22.72;40.27;99739.06;5057757;28;20041;-69
2021/05/07 05:42:46;;;;;;;5.68;3.42;;;;;;;22.51;40.93;99762.13;5058423;28;20029;-68
2021/05/07 05:45:12;;;;;;;13.00;3.80;;;;;;;22.45;41.75;99759.56;5063115;28;20035;-74
2021/05/07 05:47:37;;;;;;;4.43;2.72;;;;;;;22.54;42.09;99760.84;5064413;28;20099;-74
2021/05/07 05:50:03;;;;;;;7.82;3.40;;;;;;;22.33;42.02;99753.38;5064795;28;20047;-68
2021/05/07 05:52:29;;;;;;;9.52;3.00;;;;;;;22.53;41.76;99760.00;5062964;28;20078;-74
2021/05/07 05:54:54;;;;;;;10.52;3.42;;;;;;;22.56;41.67;99766.81;5061306;28;20059;-75
2021/05/07 05:57:20;;;;;;;15.30;3.45;;;;;;;22.86;40.76;99756.63;5060450;28;20017;-69
2021/05/07 05:59:48;;;;;;;8.45;3.10;;;;;;;23.14;40.77;99749.59;5062830;28;20099;-75
2021/05/07 06:02:14;;;;;;;9.27;3.42;;;;;;;23.35;40.46;99748.03;5061892;28;20044;-74
2021/05/07 06:04:39;;;;;;;4.80;2.80;;;;;;;23.21;39.96;99756.47;5062265;28;20032;-69
2021/05/07 06:07:05;;;;;;;8.30;3.08;;;;;;;23.19;39.95;99750.50;5064081;28;20086;-68
2021/05/07 06:09:31;;;;;;;7.10;2.95;;;;;;;23.45;39.03;99742.81;5064256;28;20389;-75
2021/05/07 06:11:56;;;;;;;8.05;3.30;;;;;;;23.53;38.31;99753.19;5062922;28;20032;-75
2021/05/07 06:14:22;;;;;;;8.60;3.60;;;;;;;23.36;38.18;99747.81;5065085;28;20028;-69
2021/05/07 06:16:48;;;;;;;6.13;2.90;;;;;;;23.34;38.83;99744.53;5063297;28;20024;-69
2021/05/07 06:19:13;;;;;;;6.18;2.88;;;;;;;23.61;38.62;99744.72;5060401;28;20032;-75
2021/05/07 06:21:39;;;;;;;9.35;3.20;;;;;;;23.85;38.75;99743.44;5062452;28;20032;-74
2021/05/07 06:24:05;;;;;;;6.63;3.08;;;;;;;23.85;38.04;99710.19;5061463;28;20033;-69
2021/05/07 06:26:30;;;;;;;13.00;3.47;;;;;;;24.25;37.01;99741.56;5062464;28;20330;-75
2021/05/07 06:28:56;;;;;;;5.32;2.90;;;;;;;24.61;35.99;99743.66;5061124;28;20036;-69
2021/05/07 06:31:21;;;;;;;7.70;3.08;;;;;;;24.97;35.46;99736.78;5063061;28;20368;-69
2021/05/07 06:33:46;;;;;;;8.43;2.90;;;;;;;25.29;34.26;99734.06;5062566;28;20036;-70
2021/05/07 06:36:15;;;;;;;5.30;2.83;;;;;;;25.55;34.79;99737.81;5062011;28;20258;-72
2021/05/07 06:38:41;;;;;;;8.93;2.70;;;;;;;25.67;34.07;99729.50;5064512;28;20025;-69
2021/05/07 06:41:06;;;;;;;11.05;3.30;;;;;;;25.94;33.63;99740.25;5063778;28;20035;-69
2021/05/07 06:43:32;;;;;;;5.47;3.08;;;;;;;26.29;32.68;99736.91;5063018;28;20029;-75
2021/05/07 06:45:57;;;;;;;5.97;2.88;;;;;;;26.65;32.01;99744.13;5062825;28;20275;-69
2021/05/07 06:48:22;;;;;;;5.22;2.90;;;;;;;27.03;31.48;99747.50;5061376;28;20033;-74
2021/05/07 06:50:48;;;;;;;9.25;3.35;;;;;;;26.80;31.28;99745.25;5061559;28;20040;-72
2021/05/07 06:53:13;;;;;;;7.88;2.83;;;;;;;26.78;31.66;99752.84;5062916;28;20035;-69
2021/05/07 06:55:39;;;;;;;4.85;3.00;;;;;;;26.83;31.81;99748.25;5061300;28;20037;-75
2021/05/07 06:58:04;;;;;;;4.82;3.08;;;;;;;26.95;31.91;99746.09;5062099;28;20025;-75
2021/05/07 07:00:30;;;;;;;9.02;3.35;;;;;;;27.28;31.59;99733.13;5060353;28;20037;-73
2021/05/07 07:02:55;;;;;;;5.50;3.30;;;;;;;27.44;31.09;99717.63;5061040;28;20029;-73
2021/05/07 07:05:21;;;;;;;7.53;3.22;;;;;;;27.74;31.39;99725.78;5060970;28;20037;-67
2021/05/07 07:07:46;;;;;;;6.53;2.65;;;;;;;28.14;30.32;99713.97;5060819;28;20203;-67
2021/05/07 07:10:11;;;;;;;6.57;3.38;;;;;;;28.36;30.30;99716.38;5070349;28;20028;-73
2021/05/07 07:12:37;;;;;;;10.05;3.08;;;;;;;28.40;29.91;99722.88;5064386;28;20365;-73
2021/05/07 07:15:03;;;;;;;5.88;3.17;;;;;;;28.48;29.36;99711.41;5068267;28;20360;-67
2021/05/07 07:17:30;;;;;;;5.47;2.90;;;;;;;27.95;30.37;99708.31;5077040;28;20025;-73
2021/05/07 07:19:55;;;;;;;6.47;2.92;;;;;;;27.10;30.35;99714.66;5070019;28;20029;-73
2021/05/07 07:22:21;;;;;;;7.03;3.15;;;;;;;26.78;31.75;99712.09;5076934;28;20047;-69
2021/05/07 07:24:47;;;;;;;5.22;2.85;;;;;;;26.77;32.62;99708.56;5076148;28;20131;-74
2021/05/07 07:27:13;;;;;;;8.25;3.17;;;;;;;27.03;31.21;99701.31;5074381;28;20033;-75
2021/05/07 07:29:39;;;;;;;7.53;3.30;;;;;;;27.07;31.51;99696.16;5072645;28;20047;-70
2021/05/07 07:32:04;;;;;;;8.95;2.92;;;;;;;27.17;31.59;99698.88;5078973;28;20027;-68
2021/05/07 07:34:30;;;;;;;9.73;2.72;;;;;;;27.21;30.74;99705.41;5070533;28;20075;-67
2021/05/07 07:36:55;;;;;;;6.82;3.20;;;;;;;27.31;30.57;99692.63;5079616;28;20028;-72
2021/05/07 07:39:21;;;;;;;7.03;2.60;;;;;;;27.13;31.37;99697.81;5069372;28;20379;-72
2021/05/07 07:41:49;;;;;;;5.90;2.78;;;;;;;26.95;31.06;99701.81;5078793;28;20024;-67
2021/05/07 07:44:17;;;;;;;7.30;2.92;;;;;;;27.56;30.79;99699.94;5064045;28;20059;-67
2021/05/07 07:46:42;;;;;;;6.85;2.95;;;;;;;27.93;29.71;99693.34;5077284;28;20352;-74
2021/05/07 07:49:08;;;;;;;6.07;3.00;;;;;;;28.33;29.25;99680.72;5067088;28;20033;-69
2021/05/07 07:51:34;;;;;;;6.97;2.58;;;;;;;28.64;28.33;99684.88;5076490;28;20086;-72
2021/05/07 07:54:02;;;;;;;6.47;3.30;;;;;;;28.48;28.85;99678.72;5065624;28;20029;-68
2021/05/07 07:56:28;;;;;;;6.97;2.85;;;;;;;28.30;28.82;99679.38;5070995;28;20050;-73
2021/05/07 07:58:53;;;;;;;9.10;3.22;;;;;;;27.94;29.83;99681.38;5062909;28;20033;-68
2021/05/07 08:01:18;;;;;;;5.22;3.00;;;;;;;27.80;30.14;99677.59;5063043;28;20253;-68
2021/05/07 08:03:44;;;;;;;6.97;2.80;;;;;;;28.16;29.79;99670.16;5063050;28;20033;-74
2021/05/07 08:06:09;;;;;;;4.55;2.40;;;;;;;28.52;28.94;99663.44;5062658;28;20043;-69
2021/05/07 08:08:35;;;;;;;5.90;2.70;;;;;;;27.87;29.52;99672.69;5062338;28;20151;-74
2021/05/07 08:11:00;;;;;;;6.10;2.95;;;;;;;26.94;31.60;99671.09;5062806;28;20041;-73
2021/05/07 08:13:26;;;;;;;6.30;3.25;;;;;;;26.39;32.47;99672.66;5062313;28;20051;-67
2021/05/07 08:15:52;;;;;;;6.60;3.22;;;;;;;25.69;34.40;99676.63;5062893;28;20037;-73
2021/05/07 08:18:17;;;;;;;5.07;2.60;;;;;;;25.39;34.89;99671.00;5062097;28;20024;-70
2021/05/07 08:20:43;;;;;;;8.05;3.38;;;;;;;25.66;34.29;99670.94;5078670;28;20256;-70
2021/05/07 08:23:08;;;;;;;8.63;3.42;;;;;;;25.85;33.08;99676.72;5062710;28;20029;-75
2021/05/07 08:25:34;;;;;;;7.78;3.22;;;;;;;26.21;32.76;99672.28;5062986;28;20032;-73
2021/05/07 08:27:59;;;;;;;4.18;2.80;;;;;;;26.34;32.51;99669.09;5063461;28;20028;-73
2021/05/07 08:30:25;;;;;;;7.88;3.03;;;;;;;26.04;33.62;99667.88;5062586;28;20412;-67
2021/05/07 08:32:50;;;;;;;10.60;3.78;;;;;;;24.41;36.79;99656.81;5062941;28;20052;-67
2021/05/07 08:35:16;;;;;;;7.18;3.47;;;;;;;24.78;36.18;99644.19;5062947;28;20040;-68
2021/05/07 08:37:44;;;;;;;9.23;3.30;;;;;;;24.71;36.83;99638.16;5062434;28;20029;-73
2021/05/07 08:40:15;;;;;;;11.57;3.05;;;;;;;24.88;35.88;99626.38;5062765;28;20029;-67
2021/05/07 08:42:41;;;;;;;5.80;3.10;;;;;;;24.94;35.98;99628.88;5064772;28;20033;-74
2021/05/07 08:45:08;;;;;;;4.85;3.15;;;;;;;25.16;35.41;99604.44;5063671;28;20067;-68
2021/05/07 08:47:34;;;;;;;8.52;3.22;;;;;;;25.34;37.12;99638.44;5062587;28;20020;-67
2021/05/07 08:50:01;;;;;;;8.45;2.88;;;;;;;25.72;35.64;99626.47;5063054;28;20036;-68
2021/05/07 08:52:27;;;;;;;8.63;3.55;;;;;;;25.03;36.42;99637.41;5062161;28;20123;-67
2021/05/07 08:54:53;;;;;;;6.85;3.30;;;;;;;25.05;35.52;99619.00;5063499;28;20037;-74
2021/05/07 08:57:18;;;;;;;8.10;3.35;;;;;;;25.62;36.63;99632.66;5062374;28;20068;-68
2021/05/07 08:59:44;;;;;;;11.25;3.22;;;;;;;25.21;36.42;99626.16;5062383;28;20071;-73
2021/05/07 09:02:09;;;;;;;9.77;3.35;;;;;;;24.68;37.01;99600.78;5062633;28;20314;-73
2021/05/07 09:04:35;;;;;;;20.90;3.67;;;;;;;25.00;35.63;99608.13;5062169;28;20231;-74
2021/05/07 09:07:11;;;;;;;7.28;3.33;;;;;;;24.91;35.81;99606.91;5062106;28;20048;-75
2021/05/07 09:09:49;;;;;;;9.65;3.50;;;;;;;24.87;36.43;99603.09;5060954;28;20033;-75
2021/05/07 09:12:33;;;;;;;9.38;3.42;;;;;;;25.24;35.35;99611.28;5061968;28;20021;-73
2021/05/07 09:15:00;;;;;;;9.93;3.30;;;;;;;25.25;35.04;99605.59;5061481;28;20075;-71
2021/05/07 09:17:28;;;;;;;6.80;3.03;;;;;;;25.30;35.09;99594.78;5062091;28;20037;-72
2021/05/07 09:20:11;;;;;;;7.97;3.22;;;;;;;25.64;35.34;99605.25;5060167;28;20040;-73
2021/05/07 09:22:38;;;;;;;4.88;3.10;;;;;;;25.31;35.54;99601.84;5050473;28;20230;-67
2021/05/07 09:25:11;;;;;;;6.35;3.00;;;;;;;25.61;35.88;99609.31;5061977;28;20040;-71
2021/05/07 09:27:40;;;;;;;8.88;2.72;;;;;;;25.87;34.49;99576.91;5062019;28;20035;-70
2021/05/07 09:30:27;;;;;;;6.00;2.88;;;;;;;25.91;34.83;99586.97;5061941;28;20060;-75
2021/05/07 09:32:54;;;;;;;4.93;2.83;;;;;;;26.15;33.73;99589.22;5062078;28;20029;-72
2021/05/07 09:35:25;;;;;;;8.18;2.88;;;;;;;26.47;33.54;99576.28;5061667;28;20250;-78
2021/05/07 09:38:06;;;;;;;6.88;3.00;;;;;;;26.72;33.15;99570.03;5060358;28;20083;-72
2021/05/07 09:40:33;;;;;;;9.00;3.22;;;;;;;26.29;33.87;99571.34;5061845;28;20053;-71
2021/05/07 09:43:10;;;;;;;5.35;3.05;;;;;;;25.89;35.04;99555.75;5062133;28;20029;-73
2021/05/07 09:45:37;;;;;;;10.18;3.17;;;;;;;25.42;35.73;99568.28;5061680;28;20307;-68
2021/05/07 09:48:03;;;;;;;7.75;3.08;;;;;;;25.58;34.81;99547.50;5061555;28;20079;-68
2021/05/07 09:50:38;;;;;;;7.38;3.33;;;;;;;25.45;36.08;99554.22;5061830;28;20100;-70
2021/05/07 09:53:26;;;;;;;8.65;2.90;;;;;;;25.38;36.19;99545.50;5061778;28;20282;-73
2021/05/07 09:55:59;;;;;;;25.00;4.50;;;;;;;25.34;34.69;99509.16;5060009;28;20032;-73
2021/05/07 09:58:24;;;;;;;7.15;2.83;;;;;;;25.24;36.05;99543.53;5061639;28;20222;-74
2021/05/07 10:00:50;;;;;;;7.22;2.90;;;;;;;25.20;35.14;99529.69;5061821;28;20037;-73
2021/05/07 10:03:15;;;;;;;8.80;2.92;;;;;;;25.67;34.32;99545.09;5061574;28;20037;-70
2021/05/07 10:05:41;;;;;;;6.80;3.03;;;;;;;25.96;34.65;99542.75;5062005;28;20110;-77
2021/05/07 10:08:07;;;;;;;6.45;2.70;;;;;;;25.81;35.11;99546.25;5061563;28;20108;-75
2021/05/07 10:10:38;;;;;;;5.80;2.53;;;;;;;25.57;34.17;99537.72;5061510;28;20074;-70
2021/05/07 10:13:07;;;;;;;9.30;2.92;;;;;;;25.42;33.94;99537.66;5060989;28;20033;-71
2021/05/07 10:15:38;;;;;;;10.05;3.05;;;;;;;25.33;35.20;99526.50;5061530;28;20274;-73
2021/05/07 10:18:11;;;;;;;11.13;3.38;;;;;;;25.22;33.70;99489.59;5061520;28;20303;-77
2021/05/07 10:20:38;;;;;;;7.47;3.60;;;;;;;25.15;35.58;99521.53;5060440;28;20096;-71
2021/05/07 10:23:19;;;;;;;10.00;3.65;;;;;;;25.05;35.44;99518.78;5061290;28;20613;-72
2021/05/07 10:25:54;;;;;;;6.28;3.38;;;;;;;25.25;35.30;99507.22;5061693;28;20040;-75
2021/05/07 10:28:19;;;;;;;7.10;3.55;;;;;;;25.24;36.58;99519.16;5061174;28;20036;-70
2021/05/07 10:30:45;;;;;;;12.85;3.22;;;;;;;25.14;36.49;99523.44;5061720;28;20036;-71
2021/05/07 10:33:20;;;;;;;8.10;2.80;;;;;;;25.46;34.42;99526.03;5062404;28;20036;-81
2021/05/07 10:35:55;;;;;;;6.55;3.38;;;;;;;25.39;36.54;99516.50;5063883;28;20017;-73
2021/05/07 10:38:22;;;;;;;7.43;2.90;;;;;;;25.50;35.02;99511.94;5064952;28;20044;-72
2021/05/07 10:41:08;;;;;;;7.88;2.95;;;;;;;25.77;34.60;99526.16;5063544;28;20319;-71
2021/05/07 10:43:42;;;;;;;9.45;3.63;;;;;;;25.73;35.76;99525.88;5064999;28;20033;-74
2021/05/07 10:46:22;;;;;;;4.85;2.53;;;;;;;26.01;34.58;99521.91;5066707;28;20223;-77
2021/05/07 10:48:56;;;;;;;12.15;3.35;;;;;;;26.23;34.73;99518.97;5063584;28;20067;-75
2021/05/07 10:51:23;;;;;;;10.23;2.80;;;;;;;26.47;33.82;99499.44;5064829;28;20029;-77
2021/05/07 10:53:49;;;;;;;6.32;2.67;;;;;;;26.55;34.52;99502.44;5063376;28;20028;-86
2021/05/07 10:56:20;;;;;;;4.95;2.65;;;;;;;26.88;32.96;99505.66;5064935;28;20262;-73
2021/05/07 10:58:46;;;;;;;7.70;2.80;;;;;;;26.61;33.40;99495.91;5063453;28;20037;-72
2021/05/07 11:01:23;;;;;;;6.80;2.75;;;;;;;26.41;35.26;99501.34;5064829;28;20025;-75
2021/05/07 11:04:07;;;;;;;7.45;2.70;;;;;;;26.22;35.28;99498.31;5064614;28;20044;-71
2021/05/07 11:06:36;;;;;;;7.15;2.50;;;;;;;26.20;34.91;99494.25;5064247;28;20219;-71
2021/05/07 11:09:20;;;;;;;4.68;2.72;;;;;;;26.47;34.37;99492.13;5064170;28;20094;-76
2021/05/07 11:11:48;;;;;;;9.85;2.67;;;;;;;26.64;33.94;99492.66;5063160;28;20295;-75
2021/05/07 11:14:21;;;;;;;11.27;2.90;;;;;;;26.75;33.93;99484.47;5064088;28;20318;-75
2021/05/07 11:16:48;;;;;;;7.43;3.08;;;;;;;26.89;33.62;99472.78;5063006;28;20020;-77
2021/05/07 11:19:20;;;;;;;8.43;3.20;;;;;;;26.96;33.84;99472.47;5062384;28;20297;-73
2021/05/07 11:21:54;;;;;;;6.50;2.83;;;;;;;27.09;33.16;99466.53;5064006;28;20025;-73
2021/05/07 11:24:35;;;;;;;5.97;3.03;;;;;;;27.18;33.55;99464.03;5063127;28;20041;-72
2021/05/07 11:27:13;;;;;;;8.50;2.80;;;;;;;27.25;32.57;99459.13;5064282;28;20033;-68
2021/05/07 11:29:39;;;;;;;12.38;3.33;;;;;;;26.69;34.06;99451.91;5061952;28;20322;-79
2021/05/07 11:32:16;;;;;;;8.07;2.42;;;;;;;26.72;34.52;99464.94;5063827;28;20029;-75
2021/05/07 11:34:42;;;;;;;6.97;2.70;;;;;;;26.79;34.15;99461.94;5062190;28;20060;-78